Crystal Hills, Colorado
Current Conditions -  °F | °C
As of 4:56 PM on Sunday 23 Nov 2014 (Local Time) from KCWN Reporting Station
Moderate Snow Moderate Snow  
Wind Chill: 16°   Ceiling: 1100
Heat Index: 26°   Visibility: 1.3mi
Dew Point: 22°   Wind: 9mph
Humidity: 88%   Direction: 340°NNW
Pressure: 29.83"   Gusts: 18mph
Location:  38.8344°N, 104.938°W
Report Text: KCWN 232356Z AUTO 34008G16KT 1 3/8SM SN FEW005 OVC011 M04/M05 A2983 RMK AO2 VIS 1/2V1 1/2 CIG 007V011 SLP133 60001 T10361053 11005 21039 52021
Loading
Personal Weather Stations






























Interactive Weather Map New forecast layout! Learn more

10-Day Weather Forecast

Advertisements
Track Severe Weather on mobile